createdAt,value
2023-05-03T00:00:55.040Z,8.10
2023-05-03T00:03:23.751Z,8.10
2023-05-03T00:05:50.466Z,8.00
2023-05-03T00:08:17.046Z,8.00
2023-05-03T00:10:43.547Z,8.00
2023-05-03T00:13:10.106Z,7.90
2023-05-03T00:15:36.608Z,7.90
2023-05-03T00:18:03.230Z,7.90
2023-05-03T00:20:29.735Z,7.90
2023-05-03T00:22:56.274Z,7.90
2023-05-03T00:25:22.900Z,7.90
2023-05-03T00:27:49.474Z,7.80
2023-05-03T00:30:17.841Z,7.90
2023-05-03T00:32:44.385Z,7.90
2023-05-03T00:35:10.875Z,7.90
2023-05-03T00:37:37.401Z,7.90
2023-05-03T00:40:05.251Z,7.90
2023-05-03T00:42:33.641Z,8.00
2023-05-03T00:45:01.043Z,7.90
2023-05-03T00:47:27.726Z,7.90
2023-05-03T00:49:54.268Z,7.90
2023-05-03T00:52:20.797Z,8.00
2023-05-03T00:54:47.348Z,7.90
2023-05-03T00:57:14.326Z,8.10
2023-05-03T00:59:41.066Z,8.00
2023-05-03T01:02:08.259Z,8.00
2023-05-03T01:04:37.055Z,8.00
2023-05-03T01:07:08.178Z,7.90
2023-05-03T01:09:39.686Z,7.90
2023-05-03T01:12:08.924Z,7.90
2023-05-03T01:14:54.443Z,7.90
2023-05-03T01:17:25.407Z,8.00
2023-05-03T01:19:56.374Z,8.00
2023-05-03T01:22:22.994Z,7.90
2023-05-03T01:24:51.668Z,7.80
2023-05-03T01:27:19.331Z,7.90
2023-05-03T01:29:45.840Z,8.00
2023-05-03T01:32:19.209Z,7.90
2023-05-03T01:34:50.894Z,7.90
2023-05-03T01:37:18.029Z,7.80
2023-05-03T01:39:48.546Z,7.80
2023-05-03T01:42:15.700Z,7.80
2023-05-03T01:44:42.579Z,7.80
2023-05-03T01:47:09.205Z,7.80
2023-05-03T01:49:35.729Z,7.80
2023-05-03T01:52:02.273Z,7.80
2023-05-03T01:54:28.861Z,7.80
2023-05-03T01:56:55.358Z,7.70
2023-05-03T01:59:21.868Z,7.70
2023-05-03T02:01:48.382Z,7.70
2023-05-03T02:04:14.933Z,7.70
2023-05-03T02:06:41.522Z,7.60
2023-05-03T02:09:08.559Z,7.60
2023-05-03T02:11:35.072Z,7.60
2023-05-03T02:14:01.572Z,7.70
2023-05-03T02:16:29.255Z,7.60
2023-05-03T02:18:59.222Z,7.50
2023-05-03T02:21:26.571Z,7.60
2023-05-03T02:23:54.149Z,7.50
2023-05-03T02:26:21.174Z,7.50
2023-05-03T02:28:47.730Z,7.50
2023-05-03T02:31:14.261Z,7.50
2023-05-03T02:33:41.236Z,7.60
2023-05-03T02:36:07.901Z,7.40
2023-05-03T02:38:34.571Z,7.40
2023-05-03T02:41:01.075Z,7.30
2023-05-03T02:43:27.575Z,7.30
2023-05-03T02:45:54.233Z,7.40
2023-05-03T02:48:20.780Z,7.40
2023-05-03T02:50:47.316Z,7.40
2023-05-03T02:53:13.979Z,7.50
2023-05-03T02:55:40.881Z,7.40
2023-05-03T02:58:07.638Z,7.40
2023-05-03T03:00:34.478Z,7.40
2023-05-03T03:03:01.192Z,7.30
2023-05-03T03:05:27.910Z,7.30
2023-05-03T03:07:54.533Z,7.30
2023-05-03T03:10:21.130Z,7.20
2023-05-03T03:12:47.752Z,7.20
2023-05-03T03:15:14.299Z,7.20
2023-05-03T03:17:41.093Z,7.20
2023-05-03T03:20:11.401Z,7.10
2023-05-03T03:22:39.588Z,7.00
2023-05-03T03:25:06.772Z,7.00
2023-05-03T03:27:33.424Z,7.00
2023-05-03T03:29:59.987Z,7.00
2023-05-03T03:32:26.571Z,6.90
2023-05-03T03:34:53.087Z,6.90
2023-05-03T03:37:21.894Z,7.00
2023-05-03T03:39:48.433Z,7.00
2023-05-03T03:42:15.187Z,6.90
2023-05-03T03:44:41.803Z,6.90
2023-05-03T03:47:14.100Z,7.10
2023-05-03T03:49:40.984Z,7.00
2023-05-03T03:52:07.808Z,7.00
2023-05-03T03:54:37.315Z,7.00
2023-05-03T03:57:05.052Z,7.00
2023-05-03T03:59:31.555Z,6.90
2023-05-03T04:01:58.229Z,7.00
2023-05-03T04:04:25.033Z,7.00
2023-05-03T04:06:51.778Z,6.90
2023-05-03T04:09:18.520Z,6.90
2023-05-03T04:11:46.042Z,6.90
2023-05-03T04:14:13.279Z,7.00
2023-05-03T04:16:39.811Z,7.10
2023-05-03T04:19:06.835Z,7.10
2023-05-03T04:21:33.341Z,7.10
2023-05-03T04:24:00.630Z,7.00
2023-05-03T04:26:31.940Z,7.00
2023-05-03T04:28:59.343Z,7.00
2023-05-03T04:31:26.882Z,7.10
2023-05-03T04:33:53.648Z,7.10
2023-05-03T04:36:25.588Z,7.10
2023-05-03T04:38:52.377Z,7.10
2023-05-03T04:41:18.903Z,7.10
2023-05-03T04:43:45.403Z,7.10
2023-05-03T04:46:11.963Z,7.10
2023-05-03T04:48:38.627Z,7.20
2023-05-03T04:51:05.176Z,7.20
2023-05-03T04:53:31.695Z,7.30
2023-05-03T04:55:58.197Z,7.40
2023-05-03T04:58:24.836Z,7.40
2023-05-03T05:00:51.513Z,7.40
2023-05-03T05:03:18.179Z,7.40
2023-05-03T05:05:44.822Z,7.40
2023-05-03T05:08:11.739Z,7.50
2023-05-03T05:10:38.910Z,7.60
2023-05-03T05:13:05.514Z,7.60
2023-05-03T05:15:32.081Z,7.60
2023-05-03T05:17:59.199Z,7.70
2023-05-03T05:20:25.762Z,7.70
2023-05-03T05:22:52.304Z,7.80
2023-05-03T05:25:18.894Z,7.90
2023-05-03T05:27:45.466Z,7.80
2023-05-03T05:30:12.187Z,7.80
2023-05-03T05:32:38.694Z,7.90
2023-05-03T05:35:05.561Z,7.90
2023-05-03T05:37:32.062Z,7.90
2023-05-03T05:39:58.598Z,7.90
2023-05-03T05:42:25.122Z,7.90
2023-05-03T05:44:52.363Z,8.00
2023-05-03T05:47:19.013Z,8.10
2023-05-03T05:49:45.694Z,8.10
2023-05-03T05:52:12.255Z,8.00
2023-05-03T05:54:38.799Z,8.00
2023-05-03T05:57:05.380Z,8.10
2023-05-03T05:59:31.961Z,8.10
2023-05-03T06:02:00.249Z,8.10
2023-05-03T06:04:27.227Z,8.10
2023-05-03T06:06:54.406Z,8.10
2023-05-03T06:09:24.543Z,8.10
2023-05-03T06:11:52.016Z,8.00
2023-05-03T06:14:20.544Z,8.10
2023-05-03T06:16:47.439Z,8.10
2023-05-03T06:19:13.974Z,8.10
2023-05-03T06:21:40.545Z,8.00
2023-05-03T06:24:07.115Z,8.10
2023-05-03T06:26:33.688Z,8.10
2023-05-03T06:29:00.850Z,8.30
2023-05-03T06:31:27.552Z,8.40
2023-05-03T06:33:54.323Z,8.40
2023-05-03T06:36:20.922Z,8.30
2023-05-03T06:38:47.450Z,8.30
2023-05-03T06:41:13.974Z,8.20
2023-05-03T06:43:40.472Z,8.20
2023-05-03T06:46:07.160Z,8.20
2023-05-03T06:48:33.899Z,8.10
2023-05-03T06:51:00.497Z,8.10
2023-05-03T06:53:27.013Z,8.10
2023-05-03T06:55:53.598Z,8.10
2023-05-03T06:58:20.115Z,8.00
2023-05-03T07:00:46.728Z,8.20
2023-05-03T07:03:13.403Z,8.30
2023-05-03T07:05:40.270Z,8.40
2023-05-03T07:08:07.307Z,8.30
2023-05-03T07:10:34.478Z,8.40
2023-05-03T07:13:01.007Z,8.40
2023-05-03T07:15:28.025Z,8.50
2023-05-03T07:17:54.598Z,8.50
2023-05-03T07:20:21.245Z,8.60
2023-05-03T07:22:48.222Z,8.70
2023-05-03T07:25:17.559Z,8.80
2023-05-03T07:27:44.331Z,8.90
2023-05-03T07:30:10.969Z,9.00
2023-05-03T07:32:37.623Z,9.20
2023-05-03T07:35:06.490Z,9.30
2023-05-03T07:37:33.004Z,9.50
2023-05-03T07:39:59.511Z,9.60
2023-05-03T07:42:26.071Z,9.60
2023-05-03T07:44:52.609Z,9.70
2023-05-03T07:47:19.220Z,9.80
2023-05-03T07:49:47.757Z,10.00
2023-05-03T07:52:14.267Z,10.00
2023-05-03T07:54:42.899Z,9.80
2023-05-03T07:57:09.400Z,9.60
2023-05-03T07:59:35.922Z,9.50
2023-05-03T08:02:02.511Z,9.40
2023-05-03T08:04:29.247Z,9.50
2023-05-03T08:06:56.009Z,9.40
2023-05-03T08:09:23.089Z,9.40
2023-05-03T08:11:49.594Z,9.30
2023-05-03T08:14:16.177Z,9.30
2023-05-03T08:16:42.782Z,9.40
2023-05-03T08:19:09.339Z,9.50
2023-05-03T08:21:36.103Z,9.60
2023-05-03T08:24:02.646Z,9.70
2023-05-03T08:26:29.773Z,9.80
2023-05-03T08:28:56.588Z,10.00
2023-05-03T08:31:23.185Z,10.30
2023-05-03T08:33:49.779Z,10.20
2023-05-03T08:36:16.550Z,10.20
2023-05-03T08:38:43.059Z,10.30
2023-05-03T08:41:14.418Z,10.30
2023-05-03T08:43:43.250Z,10.30
2023-05-03T08:46:13.541Z,10.20
2023-05-03T08:48:40.134Z,10.30
2023-05-03T08:51:08.416Z,10.30
2023-05-03T08:53:34.944Z,10.30
2023-05-03T08:56:05.497Z,10.40
2023-05-03T08:58:34.138Z,10.40
2023-05-03T09:01:07.661Z,10.30
2023-05-03T09:03:34.994Z,10.30
2023-05-03T09:06:04.634Z,10.10
2023-05-03T09:08:31.542Z,10.10
2023-05-03T09:10:58.098Z,10.00
2023-05-03T09:13:30.319Z,9.90
2023-05-03T09:15:57.390Z,9.90
2023-05-03T09:18:24.901Z,9.80
2023-05-03T09:20:52.287Z,9.70
2023-05-03T09:23:28.701Z,9.70
2023-05-03T09:25:55.375Z,9.80
2023-05-03T09:28:24.036Z,9.70
2023-05-03T09:31:03.855Z,9.70
2023-05-03T09:33:30.377Z,9.70
2023-05-03T09:36:01.964Z,9.90
2023-05-03T09:38:32.736Z,9.90
2023-05-03T09:40:59.596Z,10.00
2023-05-03T09:43:26.092Z,10.00
2023-05-03T09:45:52.882Z,10.00
2023-05-03T09:48:23.445Z,10.00
2023-05-03T09:50:51.128Z,10.00
2023-05-03T09:53:19.916Z,10.00
2023-05-03T09:55:47.593Z,10.00
2023-05-03T09:58:15.317Z,10.10
2023-05-03T10:00:43.817Z,10.10
2023-05-03T10:03:12.243Z,10.20
2023-05-03T10:05:42.966Z,10.40
2023-05-03T10:08:10.651Z,10.40
2023-05-03T10:10:38.937Z,10.40
2023-05-03T10:13:05.990Z,10.40
2023-05-03T10:15:32.729Z,10.50
2023-05-03T10:18:01.980Z,10.50
2023-05-03T10:20:33.337Z,10.50
2023-05-03T10:23:06.060Z,10.60
2023-05-03T10:25:33.298Z,10.60
2023-05-03T10:28:06.812Z,10.70
2023-05-03T10:30:37.612Z,10.60
2023-05-03T10:33:13.568Z,10.70
2023-05-03T10:35:41.276Z,10.80
2023-05-03T10:38:14.654Z,10.70
2023-05-03T10:40:42.425Z,10.70
2023-05-03T10:43:31.861Z,10.70
2023-05-03T10:45:58.976Z,10.70
2023-05-03T10:48:26.293Z,10.70
2023-05-03T10:50:53.050Z,10.90
2023-05-03T10:53:33.756Z,10.90
2023-05-03T10:56:05.508Z,10.90
2023-05-03T10:58:35.182Z,10.80
2023-05-03T11:01:03.069Z,10.90
2023-05-03T11:03:48.591Z,10.90
2023-05-03T11:06:49.605Z,10.80
2023-05-03T11:09:16.332Z,10.90
2023-05-03T11:11:43.478Z,10.80
2023-05-03T11:14:10.340Z,10.80
2023-05-03T11:16:40.381Z,10.90
2023-05-03T11:19:07.595Z,11.00
2023-05-03T11:21:34.143Z,11.00
2023-05-03T11:24:01.726Z,11.00
2023-05-03T11:26:28.271Z,11.10
2023-05-03T11:28:54.946Z,11.10
2023-05-03T11:31:22.013Z,11.10
2023-05-03T11:33:49.201Z,11.20
2023-05-03T11:36:16.281Z,11.20
2023-05-03T11:38:42.807Z,11.20
2023-05-03T11:41:11.848Z,11.30
2023-05-03T11:43:45.629Z,11.30
2023-05-03T11:46:14.537Z,11.20
2023-05-03T11:48:43.044Z,11.30
2023-05-03T11:51:12.489Z,11.20
2023-05-03T11:53:40.001Z,11.30
2023-05-03T11:56:07.189Z,11.30
2023-05-03T11:58:33.764Z,11.30
2023-05-03T12:01:00.810Z,11.30
2023-05-03T12:03:33.413Z,11.40
2023-05-03T12:06:02.331Z,11.40
2023-05-03T12:08:36.670Z,11.40
2023-05-03T12:11:06.726Z,11.50
2023-05-03T12:13:38.300Z,11.60
2023-05-03T12:18:51.706Z,11.60
2023-05-03T12:23:55.707Z,11.60
2023-05-03T12:26:23.390Z,11.70
2023-05-03T12:28:50.220Z,11.70
2023-05-03T12:31:18.209Z,11.80
2023-05-03T12:34:00.992Z,11.80
2023-05-03T12:36:37.409Z,11.80
2023-05-03T12:39:08.675Z,11.70
2023-05-03T12:42:05.467Z,11.80
2023-05-03T12:44:24.078Z,11.90
2023-05-03T12:46:52.982Z,11.80
2023-05-03T12:49:22.962Z,11.70
2023-05-03T12:52:05.877Z,11.80
2023-05-03T12:54:39.476Z,11.80
2023-05-03T12:57:14.624Z,11.80
2023-05-03T12:59:43.112Z,11.80
2023-05-03T13:07:14.733Z,11.90
2023-05-03T13:12:30.901Z,11.90
2023-05-03T13:14:57.829Z,11.90
2023-05-03T13:17:24.689Z,11.90
2023-05-03T13:19:52.226Z,11.90
2023-05-03T13:22:19.007Z,11.90
2023-05-03T13:24:46.518Z,12.00
2023-05-03T13:27:13.106Z,12.00
2023-05-03T13:29:39.778Z,12.00
2023-05-03T13:32:06.690Z,12.10
2023-05-03T13:34:33.678Z,12.00
2023-05-03T13:37:01.197Z,12.10
2023-05-03T13:39:27.746Z,12.10
2023-05-03T13:41:54.295Z,12.10
2023-05-03T13:44:21.268Z,12.10
2023-05-03T13:46:47.804Z,12.10
2023-05-03T13:49:14.337Z,12.10
2023-05-03T13:51:41.047Z,12.20
2023-05-03T13:54:07.894Z,12.20
2023-05-03T13:56:34.910Z,12.30
2023-05-03T13:59:01.774Z,12.30
2023-05-03T14:01:28.918Z,12.20
2023-05-03T14:03:55.926Z,12.30
2023-05-03T14:06:25.764Z,12.20
2023-05-03T14:08:54.208Z,12.30
2023-05-03T14:11:21.754Z,12.40
2023-05-03T14:13:56.988Z,12.50
2023-05-03T14:16:39.109Z,12.50
2023-05-03T14:19:09.888Z,12.60
2023-05-03T14:21:36.549Z,12.50
2023-05-03T14:24:03.238Z,12.60
2023-05-03T14:26:29.830Z,12.60
2023-05-03T14:28:56.366Z,12.70
2023-05-03T14:31:22.985Z,12.70
2023-05-03T14:33:49.667Z,12.80
2023-05-03T14:36:16.358Z,12.80
2023-05-03T14:38:42.906Z,12.80
2023-05-03T14:41:09.558Z,12.80
2023-05-03T14:43:37.554Z,12.90
2023-05-03T14:46:04.337Z,12.90
2023-05-03T14:48:30.862Z,13.00
2023-05-03T14:50:57.705Z,13.00
2023-05-03T14:53:24.239Z,13.20
2023-05-03T14:55:51.121Z,13.30
2023-05-03T14:58:18.551Z,13.30
2023-05-03T15:00:45.115Z,13.30
2023-05-03T15:03:13.089Z,13.10
2023-05-03T15:05:46.550Z,13.10
2023-05-03T15:08:14.486Z,13.10
2023-05-03T15:10:41.579Z,13.10
2023-05-03T15:13:09.132Z,13.20
2023-05-03T15:15:36.160Z,13.10
2023-05-03T15:18:02.958Z,13.20
2023-05-03T15:20:29.524Z,13.30
2023-05-03T15:22:56.096Z,13.40
2023-05-03T15:25:22.689Z,13.30
2023-05-03T15:27:49.321Z,13.40
2023-05-03T15:30:17.279Z,13.50
2023-05-03T15:32:43.890Z,13.40
2023-05-03T15:35:10.528Z,13.40
2023-05-03T15:37:37.506Z,13.60
2023-05-03T15:40:05.470Z,13.60
2023-05-03T15:42:32.250Z,13.60
2023-05-03T15:44:58.833Z,13.70
2023-05-03T15:47:26.390Z,13.80
2023-05-03T15:49:58.587Z,13.80
2023-05-03T15:52:25.105Z,14.00
2023-05-03T15:54:51.688Z,14.00
2023-05-03T15:57:18.571Z,14.10
2023-05-03T15:59:46.653Z,14.10
2023-05-03T16:02:13.562Z,14.20
2023-05-03T16:04:40.304Z,14.20
2023-05-03T16:07:07.838Z,14.20
2023-05-03T16:09:34.471Z,14.30
2023-05-03T16:12:01.520Z,14.20
2023-05-03T16:14:28.227Z,14.20
2023-05-03T16:16:55.012Z,14.20
2023-05-03T16:19:22.308Z,14.10
2023-05-03T16:21:48.893Z,14.00
2023-05-03T16:24:15.481Z,13.90
2023-05-03T16:26:42.286Z,13.80
2023-05-03T16:29:10.029Z,13.80
2023-05-03T16:31:36.675Z,13.80
2023-05-03T16:34:03.422Z,13.80
2023-05-03T16:36:30.296Z,13.80
2023-05-03T16:38:56.954Z,13.80
2023-05-03T16:41:24.252Z,13.80
2023-05-03T16:43:50.935Z,13.80
2023-05-03T16:46:19.285Z,13.80
2023-05-03T16:48:45.843Z,13.90
2023-05-03T16:51:12.356Z,13.90
2023-05-03T16:53:38.878Z,14.00
2023-05-03T16:56:05.494Z,14.00
2023-05-03T16:58:32.005Z,14.00
2023-05-03T17:00:58.517Z,14.00
2023-05-03T17:03:25.647Z,13.90
2023-05-03T17:05:52.314Z,13.80
2023-05-03T17:08:18.824Z,13.80
2023-05-03T17:10:45.367Z,13.80
2023-05-03T17:13:11.948Z,13.80
2023-05-03T17:15:38.580Z,13.80
2023-05-03T17:18:05.313Z,13.70
2023-05-03T17:20:32.904Z,13.70
2023-05-03T17:22:59.454Z,13.50
2023-05-03T17:25:26.331Z,13.40
2023-05-03T17:27:53.111Z,13.30
2023-05-03T17:30:21.237Z,13.20
2023-05-03T17:32:48.494Z,13.10
2023-05-03T17:35:15.131Z,13.10
2023-05-03T17:37:41.689Z,13.00
2023-05-03T17:40:08.686Z,12.90
2023-05-03T17:42:38.274Z,12.80
2023-05-03T17:45:05.279Z,12.70
2023-05-03T17:47:31.883Z,12.60
2023-05-03T17:49:58.383Z,12.60
2023-05-03T17:52:24.890Z,12.40
2023-05-03T17:54:52.357Z,12.30
2023-05-03T17:57:20.539Z,12.20
2023-05-03T17:59:48.359Z,12.20
2023-05-03T18:02:14.936Z,12.10
2023-05-03T18:05:34.533Z,12.00
2023-05-03T18:13:44.926Z,11.80
2023-05-03T18:16:11.726Z,11.70
2023-05-03T18:18:38.414Z,11.60
2023-05-03T18:21:04.994Z,11.50
2023-05-03T18:23:32.051Z,11.40
2023-05-03T18:25:59.751Z,11.20
2023-05-03T18:28:26.498Z,11.10
2023-05-03T18:30:53.172Z,11.10
2023-05-03T18:33:19.915Z,11.00
2023-05-03T18:35:49.829Z,10.90
2023-05-03T18:38:18.354Z,10.70
2023-05-03T18:40:45.697Z,10.70
2023-05-03T18:43:12.279Z,10.50
2023-05-03T18:45:39.773Z,10.40
2023-05-03T18:48:06.972Z,10.30
2023-05-03T18:50:34.908Z,10.10
2023-05-03T18:53:01.421Z,10.00
2023-05-03T18:55:27.943Z,9.90
2023-05-03T18:57:54.846Z,9.80
2023-05-03T19:00:21.586Z,9.80
2023-05-03T19:02:48.182Z,9.70
2023-05-03T19:05:15.326Z,9.60
2023-05-03T19:07:42.970Z,9.50
2023-05-03T19:10:09.887Z,9.50
2023-05-03T19:12:36.453Z,9.40
2023-05-03T19:15:03.443Z,9.50
2023-05-03T19:17:30.078Z,9.40
2023-05-03T19:19:56.702Z,9.30
2023-05-03T19:22:23.399Z,9.30
2023-05-03T19:24:50.020Z,9.20
2023-05-03T19:27:17.368Z,9.30
2023-05-03T19:29:44.143Z,9.20
2023-05-03T19:32:11.918Z,9.10
2023-05-03T19:34:38.496Z,9.10
2023-05-03T19:37:05.311Z,9.10
2023-05-03T19:39:35.504Z,8.90
2023-05-03T19:42:03.289Z,8.80
2023-05-03T19:44:30.427Z,8.70
2023-05-03T19:46:57.031Z,8.80
2023-05-03T19:49:24.697Z,8.70
2023-05-03T19:51:53.828Z,8.60
2023-05-03T19:54:21.931Z,8.60
2023-05-03T19:56:48.814Z,8.50
2023-05-03T19:59:15.379Z,8.40
2023-05-03T20:04:33.655Z,8.10
2023-05-03T20:07:00.875Z,8.00
2023-05-03T20:09:27.678Z,8.00
2023-05-03T20:11:58.837Z,7.80
2023-05-03T20:14:27.187Z,7.80
2023-05-03T20:16:53.825Z,7.80
2023-05-03T20:19:20.440Z,7.80
2023-05-03T20:21:47.081Z,7.80
2023-05-03T20:24:14.679Z,7.70
2023-05-03T20:26:41.669Z,7.50
2023-05-03T20:29:08.197Z,7.40
2023-05-03T20:31:34.867Z,7.30
2023-05-03T20:34:01.468Z,7.30
2023-05-03T20:36:29.247Z,7.30
2023-05-03T20:38:56.362Z,7.30
2023-05-03T20:41:23.310Z,7.30
2023-05-03T20:43:51.854Z,7.20
2023-05-03T20:46:18.472Z,7.20
2023-05-03T20:48:45.219Z,7.20
2023-05-03T20:51:11.802Z,7.30
2023-05-03T20:53:38.368Z,7.20
2023-05-03T20:56:06.446Z,7.10
2023-05-03T20:58:33.209Z,7.00
2023-05-03T21:01:03.813Z,7.00
2023-05-03T21:03:31.008Z,6.90
2023-05-03T21:05:57.656Z,6.90
2023-05-03T21:08:24.653Z,6.90
2023-05-03T21:10:51.447Z,6.80
2023-05-03T21:13:18.071Z,6.80
2023-05-03T21:15:44.699Z,6.70
2023-05-03T21:18:11.298Z,6.70
2023-05-03T21:20:37.957Z,6.70
2023-05-03T21:23:04.997Z,6.70
2023-05-03T21:25:32.688Z,6.70
2023-05-03T21:27:59.549Z,6.70
2023-05-03T21:30:26.075Z,6.60
2023-05-03T21:32:52.704Z,6.50
2023-05-03T21:35:19.954Z,6.30
2023-05-03T21:37:47.288Z,6.40
2023-05-03T21:40:15.038Z,6.40
2023-05-03T21:42:42.033Z,6.40
2023-05-03T21:45:09.360Z,6.30
2023-05-03T21:47:35.912Z,6.30
2023-05-03T21:50:03.163Z,6.20
2023-05-03T21:52:29.893Z,6.10
2023-05-03T21:54:56.609Z,6.20
2023-05-03T21:57:23.137Z,6.10
2023-05-03T21:59:50.325Z,6.10
2023-05-03T22:02:17.296Z,6.10
2023-05-03T22:04:43.828Z,6.00
2023-05-03T22:07:10.309Z,5.90
2023-05-03T22:09:36.834Z,5.90
2023-05-03T22:12:15.420Z,6.00
2023-05-03T22:14:49.802Z,6.00
2023-05-03T22:17:16.294Z,5.90
2023-05-03T22:19:42.953Z,5.90
2023-05-03T22:22:09.507Z,5.90
2023-05-03T22:24:36.013Z,5.80
2023-05-03T22:27:02.875Z,5.60
2023-05-03T22:29:29.504Z,5.60
2023-05-03T22:31:56.358Z,5.60
2023-05-03T22:34:22.998Z,5.70
2023-05-03T22:36:49.518Z,5.70
2023-05-03T22:39:16.170Z,5.70
2023-05-03T22:41:42.936Z,5.70
2023-05-03T22:44:09.455Z,5.60
2023-05-03T22:46:36.163Z,5.60
2023-05-03T22:49:03.078Z,5.60
2023-05-03T22:51:29.610Z,5.40
2023-05-03T22:53:56.119Z,5.40
2023-05-03T22:56:22.726Z,5.40
2023-05-03T22:58:49.280Z,5.40
2023-05-03T23:01:15.924Z,5.40
2023-05-03T23:03:42.807Z,5.40
2023-05-03T23:06:09.563Z,5.40
2023-05-03T23:08:36.101Z,5.30
2023-05-03T23:11:02.831Z,5.30
2023-05-03T23:13:29.402Z,5.30
2023-05-03T23:15:56.081Z,5.20
2023-05-03T23:18:22.681Z,5.20
2023-05-03T23:20:49.344Z,5.20
2023-05-03T23:23:16.180Z,5.10
2023-05-03T23:25:42.835Z,5.20
2023-05-03T23:28:09.518Z,5.10
2023-05-03T23:30:36.838Z,5.20
2023-05-03T23:33:04.196Z,5.30
2023-05-03T23:35:31.236Z,5.20
2023-05-03T23:37:57.727Z,5.20
2023-05-03T23:40:25.962Z,5.20
2023-05-03T23:42:52.474Z,5.20
2023-05-03T23:45:19.739Z,5.20
2023-05-03T23:47:46.315Z,5.10
2023-05-03T23:50:15.402Z,5.00
2023-05-03T23:52:41.992Z,5.00
2023-05-03T23:55:08.963Z,5.00
2023-05-03T23:57:35.476Z,4.90
